createdAt,value
2017-05-29T00:02:06.044Z,1002
2017-05-29T00:04:22.235Z,1001.97
2017-05-29T00:06:46.932Z,1001.92
2017-05-29T00:09:11.624Z,1001.89
2017-05-29T00:11:36.328Z,1001.91
2017-05-29T00:14:01.018Z,1001.91
2017-05-29T00:16:25.708Z,1001.89
2017-05-29T00:18:50.309Z,1001.89
2017-05-29T00:21:06.540Z,1001.95
2017-05-29T00:23:31.203Z,1001.94
2017-05-29T00:25:47.428Z,1001.96
2017-05-29T00:28:12.097Z,1001.95
2017-05-29T00:30:36.789Z,1001.98
2017-05-29T00:33:01.379Z,1001.94
2017-05-29T00:35:25.971Z,1001.95
2017-05-29T00:37:42.170Z,1001.93
2017-05-29T00:40:06.763Z,1001.86
2017-05-29T00:42:22.904Z,1001.82
2017-05-29T00:44:47.554Z,1001.88
2017-05-29T00:47:12.149Z,1001.88
2017-05-29T00:49:28.270Z,1001.88
2017-05-29T00:51:52.938Z,1001.9
2017-05-29T00:54:09.067Z,1001.87
2017-05-29T00:56:25.161Z,1001.84
2017-05-29T00:58:49.714Z,1001.89
2017-05-29T01:01:14.314Z,1001.84
2017-05-29T01:03:30.519Z,1001.88
2017-05-29T01:05:55.106Z,1001.82
2017-05-29T01:08:19.685Z,1001.79
2017-05-29T01:10:44.289Z,1001.79
2017-05-29T01:13:00.417Z,1001.83
2017-05-29T01:15:16.475Z,1001.84
2017-05-29T01:17:32.605Z,1001.92
2017-05-29T01:19:57.163Z,1001.87
2017-05-29T01:22:21.751Z,1001.85
2017-05-29T01:24:46.258Z,1001.81
2017-05-29T01:27:10.848Z,1001.81
2017-05-29T01:29:03.979Z,1001.79
2017-05-29T01:31:28.598Z,1001.8
2017-05-29T01:33:53.184Z,1001.72
2017-05-29T01:36:17.688Z,1001.73
2017-05-29T01:38:42.270Z,1001.72
2017-05-29T01:41:06.868Z,1001.69
2017-05-29T01:43:31.462Z,1001.69
2017-05-29T01:45:56.081Z,1001.67
2017-05-29T01:48:20.657Z,1001.71
2017-05-29T01:50:36.785Z,1001.71
2017-05-29T01:52:52.873Z,1001.7
2017-05-29T01:55:17.431Z,1001.69
2017-05-29T01:57:33.528Z,1001.74
2017-05-29T01:59:58.095Z,1001.74
2017-05-29T02:02:22.607Z,1001.78
2017-05-29T02:04:38.703Z,1001.77
2017-05-29T02:07:03.196Z,1001.8
2017-05-29T02:09:05.472Z,1001.78
2017-05-29T02:11:30.052Z,1001.77
2017-05-29T02:13:54.543Z,1001.78
2017-05-29T02:16:19.039Z,1001.79
2017-05-29T02:18:43.528Z,1001.83
2017-05-29T02:21:08.021Z,1001.84
2017-05-29T02:23:32.514Z,1001.89
2017-05-29T02:25:57.010Z,1001.88
2017-05-29T02:28:21.496Z,1001.88
2017-05-29T02:30:37.489Z,1001.87
2017-05-29T02:33:01.972Z,1001.84
2017-05-29T02:35:26.472Z,1001.82
2017-05-29T02:37:36.510Z,1001.81
2017-05-29T02:39:52.618Z,1001.84
2017-05-29T02:42:17.101Z,1001.8
2017-05-29T02:44:41.591Z,1001.79
2017-05-29T02:47:06.083Z,1001.75
2017-05-29T02:49:22.114Z,1001.75
2017-05-29T02:51:38.123Z,1001.75
2017-05-29T02:54:02.567Z,1001.75
2017-05-29T02:56:27.065Z,1001.75
2017-05-29T02:58:51.545Z,1001.76
2017-05-29T03:01:16.038Z,1001.74
2017-05-29T03:03:40.533Z,1001.77
2017-05-29T03:06:05.029Z,1001.81
2017-05-29T03:08:21.009Z,1001.76
2017-05-29T03:10:37.008Z,1001.76
2017-05-29T03:13:01.385Z,1001.78
2017-05-29T03:15:17.327Z,1001.79
2017-05-29T03:17:41.777Z,1001.84
2017-05-29T03:19:57.764Z,1001.85
2017-05-29T03:22:22.152Z,1001.86
2017-05-29T03:24:38.142Z,1001.87
2017-05-29T03:27:02.638Z,1001.92
2017-05-29T03:29:27.137Z,1001.96
2017-05-29T03:31:37.167Z,1002
2017-05-29T03:33:44.719Z,1002.02
2017-05-29T03:36:09.162Z,1002.02
2017-05-29T03:38:33.650Z,1002.08
2017-05-29T03:40:35.112Z,1002.09
2017-05-29T03:42:59.594Z,1002.14
2017-05-29T03:45:07.134Z,1002.17
2017-05-29T03:47:31.479Z,1002.17
2017-05-29T03:49:55.873Z,1002.2
2017-05-29T03:52:20.369Z,1002.18
2017-05-29T03:54:21.844Z,1002.19
2017-05-29T03:56:46.308Z,1002.18
2017-05-29T03:59:10.799Z,1002.17
2017-05-29T04:01:26.729Z,1002.16
2017-05-29T04:03:51.184Z,1002.15
2017-05-29T04:06:15.666Z,1002.14
2017-05-29T04:08:40.164Z,1002.16
2017-05-29T04:11:04.679Z,1002.14
2017-05-29T04:13:20.648Z,1002.16
2017-05-29T04:15:45.136Z,1002.15
2017-05-29T04:18:09.634Z,1002.13
2017-05-29T04:20:34.121Z,1002.17
2017-05-29T04:22:58.507Z,1002.2
2017-05-29T04:25:22.900Z,1002.18
2017-05-29T04:27:47.389Z,1002.18
2017-05-29T04:30:03.380Z,1002.17
2017-05-29T04:32:04.847Z,1002.2
2017-05-29T04:34:14.863Z,1002.23
2017-05-29T04:36:39.386Z,1002.18
2017-05-29T04:38:55.377Z,1002.24
2017-05-29T04:41:19.753Z,1002.24
2017-05-29T04:43:35.750Z,1002.25
2017-05-29T04:45:37.324Z,1002.24
2017-05-29T04:48:01.806Z,1002.31
2017-05-29T04:50:26.293Z,1002.39
2017-05-29T04:52:36.342Z,1002.39
2017-05-29T04:54:37.844Z,1002.38
2017-05-29T04:57:02.413Z,1002.46
2017-05-29T04:59:27.017Z,1002.43
2017-05-29T05:01:51.737Z,1002.49
2017-05-29T05:04:16.565Z,1002.52
2017-05-29T05:06:33.105Z,1002.48
2017-05-29T05:08:58.239Z,1002.51
2017-05-29T05:11:14.935Z,1002.55
2017-05-29T05:13:17.454Z,1002.54
2017-05-29T05:15:42.988Z,1002.54
2017-05-29T05:18:08.625Z,1002.62
2017-05-29T05:20:10.426Z,1002.63
2017-05-29T05:22:36.351Z,1002.65
2017-05-29T05:25:02.293Z,1002.59
2017-05-29T05:27:28.336Z,1002.56
2017-05-29T05:29:54.482Z,1002.57
2017-05-29T05:32:20.724Z,1002.59
2017-05-29T05:34:46.959Z,1002.64
2017-05-29T05:37:13.303Z,1002.62
2017-05-29T05:39:39.762Z,1002.58
2017-05-29T05:42:06.211Z,1002.56
2017-05-29T05:44:32.654Z,1002.53
2017-05-29T05:46:43.362Z,1002.53
2017-05-29T05:49:09.930Z,1002.56
2017-05-29T05:51:36.499Z,1002.58
2017-05-29T05:54:03.097Z,1002.53
2017-05-29T05:56:21.136Z,1002.55
2017-05-29T05:58:39.187Z,1002.63
2017-05-29T06:00:57.240Z,1002.63
2017-05-29T06:03:15.287Z,1002.59
2017-05-29T06:05:41.905Z,1002.58
2017-05-29T06:08:08.471Z,1002.52
2017-05-29T06:10:34.947Z,1002.47
2017-05-29T06:12:52.649Z,1002.48
2017-05-29T06:15:01.699Z,1002.44
2017-05-29T06:17:27.732Z,1002.44
2017-05-29T06:19:53.601Z,1002.45
2017-05-29T06:22:10.810Z,1002.47
2017-05-29T06:24:27.871Z,1002.51
2017-05-29T06:26:53.421Z,1002.46
2017-05-29T06:29:18.960Z,1002.59
2017-05-29T06:31:20.760Z,1002.73
2017-05-29T06:33:46.543Z,1002.65
2017-05-29T06:36:03.954Z,1002.77
2017-05-29T06:38:30.097Z,1002.8
2017-05-29T06:40:56.437Z,1002.77
2017-05-29T06:43:22.947Z,1002.7
2017-05-29T06:45:49.640Z,1002.61
2017-05-29T06:48:16.432Z,1002.61
2017-05-29T06:50:43.268Z,1002.6
2017-05-29T06:53:10.082Z,1002.56
2017-05-29T06:55:28.252Z,1002.59
2017-05-29T06:57:54.957Z,1002.6
2017-05-29T07:00:21.593Z,1002.57
2017-05-29T07:02:48.109Z,1002.51
2017-05-29T07:05:05.941Z,1002.5
2017-05-29T07:07:32.259Z,1002.47
2017-05-29T07:09:58.533Z,1002.51
2017-05-29T07:12:24.747Z,1002.47
2017-05-29T07:14:50.890Z,1002.48
2017-05-29T07:17:16.982Z,1002.46
2017-05-29T07:19:43.068Z,1002.45
2017-05-29T07:22:09.106Z,1002.43
2017-05-29T07:24:26.537Z,1002.44
2017-05-29T07:26:43.964Z,1002.43
2017-05-29T07:29:09.870Z,1002.44
2017-05-29T07:31:27.279Z,1002.43
2017-05-29T07:33:44.691Z,1002.45
2017-05-29T07:36:02.051Z,1002.43
2017-05-29T07:38:19.453Z,1002.42
2017-05-29T07:40:45.407Z,1002.4
2017-05-29T07:43:02.824Z,1002.39
2017-05-29T07:45:28.785Z,1002.34
2017-05-29T07:47:46.258Z,1002.28
2017-05-29T07:50:12.237Z,1002.32
2017-05-29T07:52:38.285Z,1002.28
2017-05-29T07:55:04.302Z,1002.31
2017-05-29T07:57:30.339Z,1002.29
2017-05-29T07:59:47.822Z,1002.24
2017-05-29T08:02:13.862Z,1002.22
2017-05-29T08:04:15.757Z,1002.23
2017-05-29T08:06:41.925Z,1002.2
2017-05-29T08:09:08.062Z,1002.12
2017-05-29T08:11:35.222Z,1002.12
2017-05-29T08:14:01.377Z,1002.11
2017-05-29T08:16:27.561Z,1002.13
2017-05-29T08:18:45.131Z,1002.11
2017-05-29T08:21:11.251Z,1002.14
2017-05-29T08:23:37.399Z,1002.15
2017-05-29T08:26:03.528Z,1002.11
2017-05-29T08:28:29.670Z,1002.12
2017-05-29T08:30:55.803Z,1002.12
2017-05-29T08:33:13.372Z,1002.06
2017-05-29T08:35:30.887Z,1002.08
2017-05-29T08:37:56.974Z,1002.04
2017-05-29T08:40:23.039Z,1002.02
2017-05-29T08:42:49.145Z,1002
2017-05-29T08:45:15.206Z,1001.98
2017-05-29T08:47:41.287Z,1002.02
2017-05-29T08:50:07.387Z,1001.99
2017-05-29T08:52:33.490Z,1002.05
2017-05-29T08:54:59.540Z,1002.03
2017-05-29T08:57:25.590Z,1002.05
2017-05-29T08:59:43.068Z,1002.06
2017-05-29T09:02:00.524Z,1002.06
2017-05-29T09:04:26.539Z,1002.02
2017-05-29T09:06:52.568Z,1002.02
2017-05-29T09:09:18.584Z,1002.05
2017-05-29T09:11:44.601Z,1001.96
2017-05-29T09:14:10.603Z,1001.9
2017-05-29T09:16:36.603Z,1001.86
2017-05-29T09:19:02.529Z,1001.83
2017-05-29T09:21:19.933Z,1001.76
2017-05-29T09:23:30.437Z,1001.8
2017-05-29T09:25:56.380Z,1001.75
2017-05-29T09:28:22.283Z,1001.78
2017-05-29T09:30:48.169Z,1001.77
2017-05-29T09:33:14.052Z,1001.75
2017-05-29T09:35:16.455Z,1001.71
2017-05-29T09:37:42.337Z,1001.72
2017-05-29T09:40:08.272Z,1001.74
2017-05-29T09:42:34.209Z,1001.73
2017-05-29T09:45:00.163Z,1001.7
2017-05-29T09:47:26.114Z,1001.71
2017-05-29T09:49:52.081Z,1001.68
2017-05-29T09:52:18.037Z,1001.66
2017-05-29T09:54:19.882Z,1001.64
2017-05-29T09:56:37.279Z,1001.6
2017-05-29T09:59:03.210Z,1001.58
2017-05-29T10:01:29.095Z,1001.55
2017-05-29T10:03:54.996Z,1001.54
2017-05-29T10:06:20.864Z,1001.48
2017-05-29T10:08:46.704Z,1001.46
2017-05-29T10:11:12.507Z,1001.43
2017-05-29T10:13:38.357Z,1001.4
2017-05-29T10:16:04.054Z,1001.36
2017-05-29T10:18:29.863Z,1001.33
2017-05-29T10:20:55.607Z,1001.34
2017-05-29T10:23:12.839Z,1001.29
2017-05-29T10:25:30.037Z,1001.25
2017-05-29T10:27:55.754Z,1001.27
2017-05-29T10:30:21.467Z,1001.31
2017-05-29T10:32:47.170Z,1001.28
2017-05-29T10:35:12.827Z,1001.21
2017-05-29T10:37:38.490Z,1001.24
2017-05-29T10:40:04.108Z,1001.23
2017-05-29T10:42:29.764Z,1001.23
2017-05-29T10:44:55.436Z,1001.22
2017-05-29T10:47:21.105Z,1001.2
2017-05-29T10:49:46.781Z,1001.13
2017-05-29T10:52:03.899Z,1001.17
2017-05-29T10:54:14.311Z,1001.14
2017-05-29T10:56:40.966Z,1001.15
2017-05-29T10:58:58.043Z,1001.11
2017-05-29T11:01:23.629Z,1001.08
2017-05-29T11:03:32.182Z,1001.09
2017-05-29T11:05:40.712Z,1001.1
2017-05-29T11:08:06.302Z,1001.17
2017-05-29T11:10:31.830Z,1001.15
2017-05-29T11:12:57.425Z,1001.13
2017-05-29T11:15:22.984Z,1001.11
2017-05-29T11:17:48.579Z,1001.04
2017-05-29T11:20:14.151Z,1000.94
2017-05-29T11:22:24.549Z,1000.95
2017-05-29T11:24:50.154Z,1000.93
2017-05-29T11:27:15.766Z,1000.88
2017-05-29T11:29:41.333Z,1000.83
2017-05-29T11:32:06.948Z,1000.8
2017-05-29T11:34:32.559Z,1000.8
2017-05-29T11:36:58.194Z,1000.76
2017-05-29T11:39:23.807Z,1000.73
2017-05-29T11:41:49.407Z,1000.67
2017-05-29T11:44:15.047Z,1000.67
2017-05-29T11:46:40.636Z,1000.61
2017-05-29T11:48:57.731Z,1000.64
2017-05-29T11:51:14.850Z,1000.64
2017-05-29T11:53:40.505Z,1000.61
2017-05-29T11:56:06.176Z,1000.61
2017-05-29T11:58:31.768Z,1000.59
2017-05-29T12:00:48.840Z,1000.55
2017-05-29T12:03:14.448Z,1000.54
2017-05-29T12:05:31.650Z,1000.52
2017-05-29T12:07:33.429Z,1000.54
2017-05-29T12:09:59.084Z,1000.56
2017-05-29T12:12:24.738Z,1000.51
2017-05-29T12:14:41.863Z,1000.43
2017-05-29T12:17:07.474Z,1000.43
2017-05-29T12:19:33.129Z,1000.42
2017-05-29T12:21:58.721Z,1000.41
2017-05-29T12:23:51.972Z,1000.4
2017-05-29T12:26:17.621Z,1000.39
2017-05-29T12:28:43.189Z,1000.31
2017-05-29T12:31:08.745Z,1000.29
2017-05-29T12:33:34.316Z,1000.32
2017-05-29T12:35:59.904Z,1000.3
2017-05-29T12:38:25.427Z,1000.3
2017-05-29T12:40:50.958Z,1000.26
2017-05-29T12:42:53.473Z,1000.2
2017-05-29T12:45:19.010Z,1000.28
2017-05-29T12:47:44.458Z,1000.34
2017-05-29T12:50:09.914Z,1000.32
2017-05-29T12:52:26.826Z,1000.33
2017-05-29T12:54:37.186Z,1000.3
2017-05-29T12:57:02.602Z,1000.28
2017-05-29T12:59:28.003Z,1000.26
2017-05-29T13:01:44.915Z,1000.27
2017-05-29T13:04:10.260Z,1000.25
2017-05-29T13:06:35.677Z,1000.23
2017-05-29T13:09:01.043Z,1000.21
2017-05-29T13:10:54.248Z,1000.21
2017-05-29T13:13:11.136Z,1000.25
2017-05-29T13:15:27.992Z,1000.2
2017-05-29T13:17:53.375Z,1000.17
2017-05-29T13:20:18.719Z,1000.13
2017-05-29T13:22:44.062Z,1000.06
2017-05-29T13:25:09.385Z,1000.02
2017-05-29T13:27:34.759Z,1000.05
2017-05-29T13:29:51.612Z,999.99
2017-05-29T13:32:08.466Z,999.99
2017-05-29T13:34:33.807Z,999.98
2017-05-29T13:36:59.158Z,999.99
2017-05-29T13:39:24.488Z,1000
2017-05-29T13:41:49.848Z,1000.02
2017-05-29T13:43:58.177Z,1000.04
2017-05-29T13:46:23.556Z,1000.02
2017-05-29T13:48:40.444Z,999.95
2017-05-29T13:51:05.831Z,999.98
2017-05-29T13:53:22.705Z,999.91
2017-05-29T13:55:48.074Z,999.91
2017-05-29T13:57:49.809Z,999.89
2017-05-29T14:00:15.245Z,999.84
2017-05-29T14:02:32.161Z,999.84
2017-05-29T14:04:57.588Z,999.81
2017-05-29T14:07:23.025Z,999.74
2017-05-29T14:09:48.452Z,999.69
2017-05-29T14:12:13.911Z,999.69
2017-05-29T14:14:30.866Z,999.66
2017-05-29T14:16:56.324Z,999.66
2017-05-29T14:19:21.809Z,999.61
2017-05-29T14:21:47.265Z,999.58
2017-05-29T14:24:12.746Z,999.58
2017-05-29T14:26:38.224Z,999.58
2017-05-29T14:29:03.697Z,999.58
2017-05-29T14:31:29.204Z,999.53
2017-05-29T14:33:39.579Z,999.54
2017-05-29T14:36:05.123Z,999.54
2017-05-29T14:38:30.623Z,999.5
2017-05-29T14:40:56.141Z,999.45
2017-05-29T14:43:21.683Z,999.42
2017-05-29T14:45:38.650Z,999.46
2017-05-29T14:48:04.130Z,999.44
2017-05-29T14:50:29.656Z,999.43
2017-05-29T14:52:46.665Z,999.44
2017-05-29T14:55:12.236Z,999.4
2017-05-29T14:57:37.782Z,999.38
2017-05-29T15:00:03.369Z,999.33
2017-05-29T15:02:28.969Z,999.32
2017-05-29T15:04:37.543Z,999.29
2017-05-29T15:07:03.249Z,999.22
2017-05-29T15:09:28.993Z,999.23
2017-05-29T15:11:54.670Z,999.2
2017-05-29T15:14:20.283Z,999.2
2017-05-29T15:16:45.895Z,999.2
2017-05-29T15:18:54.494Z,999.13
2017-05-29T15:21:20.134Z,999.07
2017-05-29T15:23:22.032Z,999.02
2017-05-29T15:25:47.630Z,998.96
2017-05-29T15:28:13.233Z,998.97
2017-05-29T15:30:21.716Z,998.97
2017-05-29T15:32:47.257Z,998.96
2017-05-29T15:34:57.624Z,998.9
2017-05-29T15:37:23.141Z,998.89
2017-05-29T15:39:48.630Z,998.84
2017-05-29T15:42:14.102Z,998.89
2017-05-29T15:44:15.861Z,998.89
2017-05-29T15:46:18.170Z,998.83
2017-05-29T15:48:43.709Z,998.77
2017-05-29T15:51:09.158Z,998.74
2017-05-29T15:53:34.638Z,998.67
2017-05-29T15:56:00.117Z,998.66
2017-05-29T15:58:17.056Z,998.63
2017-05-29T16:00:42.578Z,998.65
2017-05-29T16:03:08.001Z,998.62
2017-05-29T16:05:24.947Z,998.69
2017-05-29T16:07:50.411Z,998.7
2017-05-29T16:10:15.870Z,998.7
2017-05-29T16:12:41.371Z,998.72
2017-05-29T16:15:06.861Z,998.73
2017-05-29T16:17:23.790Z,998.76
2017-05-29T16:19:49.278Z,998.74
2017-05-29T16:22:06.263Z,998.67
2017-05-29T16:24:31.780Z,998.64
2017-05-29T16:26:48.758Z,998.62
2017-05-29T16:29:14.380Z,998.63
2017-05-29T16:31:31.378Z,998.59
2017-05-29T16:33:57.005Z,998.54
2017-05-29T16:36:22.674Z,998.55
2017-05-29T16:38:48.246Z,998.51
2017-05-29T16:41:13.859Z,998.54
2017-05-29T16:43:39.474Z,998.47
2017-05-29T16:46:05.091Z,998.5
2017-05-29T16:48:22.138Z,998.56
2017-05-29T16:50:47.719Z,998.53
2017-05-29T16:53:13.352Z,998.57
2017-05-29T16:55:30.478Z,998.55
2017-05-29T16:57:56.074Z,998.56
2017-05-29T17:00:21.593Z,998.58
2017-05-29T17:02:47.094Z,998.6
2017-05-29T17:05:12.625Z,998.6
2017-05-29T17:07:14.391Z,998.62
2017-05-29T17:09:39.898Z,998.64
2017-05-29T17:12:05.396Z,998.64
2017-05-29T17:14:30.933Z,998.62
2017-05-29T17:16:47.933Z,998.59
2017-05-29T17:19:13.343Z,998.63
2017-05-29T17:21:38.874Z,998.63
2017-05-29T17:24:04.386Z,998.6
2017-05-29T17:26:29.913Z,998.66
2017-05-29T17:28:40.409Z,998.66
2017-05-29T17:31:05.990Z,998.65
2017-05-29T17:33:33.545Z,998.61
2017-05-29T17:35:59.052Z,998.6
2017-05-29T17:38:16.075Z,998.67
2017-05-29T17:40:32.976Z,998.64
2017-05-29T17:42:49.935Z,998.65
2017-05-29T17:45:15.294Z,998.58
2017-05-29T17:47:40.726Z,998.57
2017-05-29T17:50:07.250Z,998.58
2017-05-29T17:52:10.500Z,998.6
2017-05-29T17:54:35.970Z,998.57
2017-05-29T17:57:01.490Z,998.6
2017-05-29T17:59:27.001Z,998.57
2017-05-29T18:01:52.525Z,998.58
2017-05-29T18:04:09.496Z,998.59
2017-05-29T18:06:35.049Z,998.6
2017-05-29T18:09:00.581Z,998.61
2017-05-29T18:11:26.081Z,998.69
2017-05-29T18:13:52.694Z,998.71
2017-05-29T18:16:23.155Z,998.77
2017-05-29T18:18:48.659Z,998.75
2017-05-29T18:21:14.391Z,998.78
2017-05-29T18:23:31.286Z,998.8
2017-05-29T18:25:56.644Z,998.84
2017-05-29T18:28:21.983Z,998.85
2017-05-29T18:30:47.421Z,998.82
2017-05-29T18:33:12.839Z,998.82
2017-05-29T18:35:38.169Z,998.83
2017-05-29T18:38:04.699Z,998.85
2017-05-29T18:40:30.111Z,998.84
2017-05-29T18:42:55.514Z,998.82
2017-05-29T18:45:20.835Z,998.79
2017-05-29T18:47:14.014Z,998.77
2017-05-29T18:49:39.387Z,998.79
2017-05-29T18:52:04.700Z,998.79
2017-05-29T18:54:30.024Z,998.78
2017-05-29T18:56:55.356Z,998.79
2017-05-29T18:59:05.638Z,998.82
2017-05-29T19:01:30.988Z,998.8
2017-05-29T19:03:47.773Z,998.8
2017-05-29T19:06:12.989Z,998.86
2017-05-29T19:08:29.695Z,998.88
2017-05-29T19:10:46.409Z,998.89
2017-05-29T19:13:11.623Z,998.9
2017-05-29T19:15:36.922Z,998.94
2017-05-29T19:18:02.042Z,998.98
2017-05-29T19:20:18.846Z,999.04
2017-05-29T19:22:27.062Z,999.08
2017-05-29T19:24:52.261Z,999.1
2017-05-29T19:27:17.484Z,999.15
2017-05-29T19:29:34.181Z,999.2
2017-05-29T19:31:59.381Z,999.24
2017-05-29T19:34:24.596Z,999.23
2017-05-29T19:36:49.810Z,999.29
2017-05-29T19:39:14.999Z,999.32
2017-05-29T19:41:40.216Z,999.33
2017-05-29T19:44:05.419Z,999.37
2017-05-29T19:46:30.524Z,999.35
2017-05-29T19:48:55.631Z,999.38
2017-05-29T19:51:20.743Z,999.4
2017-05-29T19:53:45.856Z,999.42
2017-05-29T19:56:10.943Z,999.41
2017-05-29T19:58:21.179Z,999.42
2017-05-29T20:00:46.309Z,999.46
2017-05-29T20:03:11.421Z,999.5
2017-05-29T20:05:36.509Z,999.51
2017-05-29T20:07:47.230Z,999.5
2017-05-29T20:10:12.402Z,999.55
2017-05-29T20:12:37.402Z,999.62
2017-05-29T20:14:39.092Z,999.58
2017-05-29T20:16:41.179Z,999.64
2017-05-29T20:19:06.222Z,999.66
2017-05-29T20:21:31.341Z,999.64
2017-05-29T20:23:56.337Z,999.69
2017-05-29T20:25:57.967Z,999.72
2017-05-29T20:28:23.086Z,999.79
2017-05-29T20:30:48.086Z,999.85
2017-05-29T20:33:13.112Z,999.84
2017-05-29T20:35:14.717Z,999.78
2017-05-29T20:37:39.750Z,999.8
2017-05-29T20:40:04.777Z,999.8
2017-05-29T20:42:21.245Z,999.81
2017-05-29T20:44:46.134Z,999.85
2017-05-29T20:47:11.038Z,999.82
2017-05-29T20:49:35.828Z,999.79
2017-05-29T20:52:00.621Z,999.68
2017-05-29T20:54:25.421Z,999.69
2017-05-29T20:56:50.210Z,999.73
2017-05-29T20:59:06.521Z,999.73
2017-05-29T21:01:31.336Z,999.77
2017-05-29T21:03:47.630Z,999.9
2017-05-29T21:06:03.903Z,999.95
2017-05-29T21:08:28.702Z,999.87
2017-05-29T21:10:45.000Z,999.88
2017-05-29T21:13:09.709Z,999.9
2017-05-29T21:15:34.495Z,999.96
2017-05-29T21:17:59.299Z,1000.01
2017-05-29T21:20:01.612Z,999.97
2017-05-29T21:22:26.368Z,1000.02
2017-05-29T21:24:51.168Z,1000.01
2017-05-29T21:27:15.871Z,999.96
2017-05-29T21:29:40.671Z,999.96
2017-05-29T21:31:56.957Z,999.96
2017-05-29T21:34:21.785Z,999.99
2017-05-29T21:36:46.567Z,999.99
2017-05-29T21:39:11.367Z,1000
2017-05-29T21:41:36.165Z,1000.02
2017-05-29T21:44:00.979Z,1000.06
2017-05-29T21:46:25.786Z,1000.04
2017-05-29T21:48:50.557Z,1000.08
2017-05-29T21:51:15.257Z,1000.08
2017-05-29T21:53:40.055Z,1000.05
2017-05-29T21:55:56.357Z,1000
2017-05-29T21:58:21.044Z,999.96
2017-05-29T22:00:45.837Z,999.97
2017-05-29T22:03:10.541Z,999.99
2017-05-29T22:05:26.834Z,999.97
2017-05-29T22:07:43.065Z,999.98
2017-05-29T22:10:07.825Z,999.94
2017-05-29T22:12:32.524Z,999.98
2017-05-29T22:14:57.241Z,1000
2017-05-29T22:17:22.012Z,1000
2017-05-29T22:19:46.714Z,1000.03
2017-05-29T22:21:56.905Z,1000.06
2017-05-29T22:24:21.668Z,1000.08
2017-05-29T22:26:37.857Z,1000.13
2017-05-29T22:29:02.562Z,1000.16
2017-05-29T22:31:18.777Z,1000.18
2017-05-29T22:33:20.305Z,1000.18
2017-05-29T22:35:45.007Z,1000.22
2017-05-29T22:37:46.609Z,1000.25
2017-05-29T22:40:02.866Z,1000.23
2017-05-29T22:42:27.555Z,1000.26
2017-05-29T22:44:43.777Z,1000.27
2017-05-29T22:47:08.456Z,1000.28
2017-05-29T22:49:33.150Z,1000.27
2017-05-29T22:51:57.851Z,1000.31
2017-05-29T22:54:22.653Z,1000.29
2017-05-29T22:56:47.350Z,1000.27
2017-05-29T22:59:03.679Z,1000.26
2017-05-29T23:01:28.443Z,1000.22
2017-05-29T23:03:53.144Z,1000.22
2017-05-29T23:06:17.839Z,1000.18
2017-05-29T23:08:42.530Z,1000.17
2017-05-29T23:11:07.230Z,1000.2
2017-05-29T23:13:31.927Z,1000.16
2017-05-29T23:15:56.722Z,1000.17
2017-05-29T23:18:21.420Z,1000.15
2017-05-29T23:20:46.105Z,1000.17
2017-05-29T23:23:02.405Z,1000.17
2017-05-29T23:25:18.604Z,1000.17
2017-05-29T23:27:43.305Z,1000.22
2017-05-29T23:30:07.991Z,1000.17
2017-05-29T23:32:09.589Z,1000.22
2017-05-29T23:34:11.138Z,1000.21
2017-05-29T23:36:35.903Z,1000.22
2017-05-29T23:38:52.127Z,1000.26
2017-05-29T23:41:16.789Z,1000.26
2017-05-29T23:43:41.495Z,1000.31
2017-05-29T23:46:06.188Z,1000.35
2017-05-29T23:48:30.900Z,1000.37
2017-05-29T23:50:55.583Z,1000.42
2017-05-29T23:53:20.178Z,1000.5
2017-05-29T23:55:44.761Z,1000.55
2017-05-29T23:58:09.386Z,1000.6
